createdAt,value
2022-11-11T00:00:51.388Z,57.16
2022-11-11T00:01:51.412Z,52.31
2022-11-11T00:02:51.428Z,45.92
2022-11-11T00:03:51.377Z,50.16
2022-11-11T00:04:51.366Z,43.64
2022-11-11T00:05:51.374Z,41.33
2022-11-11T00:06:51.409Z,44.98
2022-11-11T00:07:51.332Z,48.64
2022-11-11T00:08:51.320Z,49.24
2022-11-11T00:09:51.319Z,53.23
2022-11-11T00:10:51.320Z,48.62
2022-11-11T00:11:51.414Z,46.41
2022-11-11T00:12:51.294Z,45.41
2022-11-11T00:13:51.302Z,42.13
2022-11-11T00:14:51.276Z,52.25
2022-11-11T00:15:51.268Z,54.58
2022-11-11T00:16:51.298Z,41.50
2022-11-11T00:17:51.301Z,44.59
2022-11-11T00:18:51.287Z,52.35
2022-11-11T00:19:51.277Z,49.05
2022-11-11T00:20:51.274Z,44.00
2022-11-11T00:21:51.257Z,55.95
2022-11-11T00:22:51.240Z,41.50
2022-11-11T00:23:51.221Z,43.99
2022-11-11T00:24:51.255Z,44.69
2022-11-11T00:25:51.333Z,48.41
2022-11-11T00:26:51.253Z,55.33
2022-11-11T00:27:51.258Z,54.88
2022-11-11T00:28:51.206Z,44.20
2022-11-11T00:29:51.203Z,47.72
2022-11-11T00:30:51.174Z,41.46
2022-11-11T00:31:51.221Z,41.62
2022-11-11T00:32:51.137Z,55.91
2022-11-11T00:33:51.137Z,44.73
2022-11-11T00:34:51.175Z,44.05
2022-11-11T00:35:51.116Z,44.66
2022-11-11T00:36:51.202Z,47.10
2022-11-11T00:37:51.155Z,44.26
2022-11-11T00:38:51.121Z,44.44
2022-11-11T00:39:51.086Z,49.76
2022-11-11T00:40:51.077Z,56.29
2022-11-11T00:41:51.148Z,52.97
2022-11-11T00:42:51.126Z,42.35
2022-11-11T00:43:51.126Z,45.84
2022-11-11T00:44:51.076Z,41.51
2022-11-11T00:45:51.114Z,47.79
2022-11-11T00:46:51.060Z,46.24
2022-11-11T00:47:51.028Z,49.06
2022-11-11T00:48:51.075Z,56.34
2022-11-11T00:49:51.004Z,48.72
2022-11-11T00:50:51.066Z,43.47
2022-11-11T00:51:51.018Z,43.90
2022-11-11T00:52:50.984Z,41.70
2022-11-11T00:53:51.037Z,40.12
2022-11-11T00:54:51.002Z,56.09
2022-11-11T00:55:51.014Z,43.60
2022-11-11T00:56:51.011Z,44.85
2022-11-11T00:57:50.990Z,50.81
2022-11-11T00:58:50.991Z,46.79
2022-11-11T00:59:51.112Z,44.21
2022-11-11T01:00:50.933Z,46.31
2022-11-11T01:01:51.073Z,43.03
2022-11-11T01:02:50.950Z,40.01
2022-11-11T01:03:50.931Z,42.72
2022-11-11T01:04:50.951Z,41.70
2022-11-11T01:05:50.905Z,44.12
2022-11-11T01:06:51.098Z,40.66
2022-11-11T01:07:50.992Z,58.41
2022-11-11T01:08:50.945Z,45.91
2022-11-11T01:09:50.875Z,41.57
2022-11-11T01:10:50.869Z,41.76
2022-11-11T01:11:50.952Z,46.70
2022-11-11T01:12:50.849Z,40.50
2022-11-11T01:13:50.874Z,50.47
2022-11-11T01:14:50.889Z,47.26
2022-11-11T01:15:51.063Z,43.41
2022-11-11T01:16:50.834Z,47.02
2022-11-11T01:17:50.797Z,45.20
2022-11-11T01:18:50.817Z,45.23
2022-11-11T01:19:50.889Z,51.89
2022-11-11T01:20:50.785Z,47.36
2022-11-11T01:21:50.812Z,45.42
2022-11-11T01:22:50.828Z,38.85
2022-11-11T01:23:51.896Z,47.21
2022-11-11T01:24:50.753Z,42.54
2022-11-11T01:25:50.738Z,54.23
2022-11-11T01:26:50.776Z,45.46
2022-11-11T01:27:50.785Z,44.36
2022-11-11T01:28:50.726Z,52.70
2022-11-11T01:29:50.702Z,49.21
2022-11-11T01:30:50.809Z,43.70
2022-11-11T01:31:50.829Z,47.49
2022-11-11T01:32:50.801Z,50.46
2022-11-11T01:33:50.720Z,52.07
2022-11-11T01:34:50.674Z,47.04
2022-11-11T01:35:50.771Z,44.28
2022-11-11T01:36:50.787Z,43.85
2022-11-11T01:37:50.693Z,45.11
2022-11-11T01:38:50.646Z,44.40
2022-11-11T01:39:50.630Z,45.68
2022-11-11T01:40:50.778Z,53.33
2022-11-11T01:41:50.687Z,45.47
2022-11-11T01:42:50.641Z,47.58
2022-11-11T01:43:50.619Z,40.67
2022-11-11T01:44:50.608Z,56.09
2022-11-11T01:45:50.677Z,47.10
2022-11-11T01:46:50.597Z,49.31
2022-11-11T01:48:16.611Z,45.47
2022-11-11T01:48:52.572Z,46.97
2022-11-11T01:49:50.657Z,42.96
2022-11-11T01:50:50.544Z,49.13
2022-11-11T01:51:50.689Z,44.39
2022-11-11T01:52:50.564Z,48.31
2022-11-11T01:53:50.565Z,41.99
2022-11-11T01:54:50.611Z,42.59
2022-11-11T01:55:50.648Z,56.25
2022-11-11T01:56:50.503Z,44.89
2022-11-11T01:57:50.670Z,43.68
2022-11-11T01:58:50.488Z,43.88
2022-11-11T01:59:50.664Z,51.62
2022-11-11T02:00:50.595Z,46.09
2022-11-11T02:01:50.555Z,47.85
2022-11-11T02:02:50.739Z,41.82
2022-11-11T02:03:50.652Z,42.67
2022-11-11T02:04:50.614Z,44.77
2022-11-11T02:05:50.607Z,40.45
2022-11-11T02:06:50.504Z,48.03
2022-11-11T02:07:50.503Z,45.02
2022-11-11T02:08:50.526Z,45.20
2022-11-11T02:09:50.398Z,43.45
2022-11-11T02:10:50.429Z,43.25
2022-11-11T02:11:50.523Z,54.13
2022-11-11T02:12:50.551Z,53.96
2022-11-11T02:13:50.379Z,42.72
2022-11-11T02:14:50.519Z,43.74
2022-11-11T02:15:50.365Z,56.57
2022-11-11T02:16:50.456Z,44.26
2022-11-11T02:17:50.471Z,42.92
2022-11-11T02:18:50.382Z,55.14
2022-11-11T02:19:50.491Z,47.64
2022-11-11T02:20:50.449Z,44.62
2022-11-11T02:21:50.466Z,50.04
2022-11-11T02:22:50.335Z,55.17
2022-11-11T02:23:50.307Z,45.62
2022-11-11T02:24:50.455Z,41.91
2022-11-11T02:25:50.377Z,42.64
2022-11-11T02:26:54.196Z,43.98
2022-11-11T02:27:52.420Z,42.97
2022-11-11T02:28:50.296Z,42.26
2022-11-11T02:29:50.285Z,54.99
2022-11-11T02:30:50.252Z,50.37
2022-11-11T02:31:50.230Z,48.69
2022-11-11T02:32:50.353Z,48.68
2022-11-11T02:33:50.278Z,41.95
2022-11-11T02:34:50.341Z,40.95
2022-11-11T02:35:50.433Z,41.13
2022-11-11T02:36:50.308Z,40.90
2022-11-11T02:37:50.329Z,43.17
2022-11-11T02:38:50.219Z,46.53
2022-11-11T02:40:03.150Z,50.25
2022-11-11T02:40:52.286Z,49.60
2022-11-11T02:41:50.161Z,48.42
2022-11-11T02:42:50.321Z,42.56
2022-11-11T02:43:50.226Z,41.77
2022-11-11T02:44:50.356Z,43.02
2022-11-11T02:45:50.202Z,45.54
2022-11-11T02:46:50.307Z,56.00
2022-11-11T02:47:50.231Z,45.67
2022-11-11T02:48:50.138Z,44.01
2022-11-11T02:49:50.136Z,49.91
2022-11-11T02:50:50.151Z,48.13
2022-11-11T02:51:51.151Z,44.58
2022-11-11T02:52:50.115Z,50.95
2022-11-11T02:53:50.205Z,56.88
2022-11-11T02:54:50.082Z,53.83
2022-11-11T02:55:50.093Z,50.06
2022-11-11T02:56:50.088Z,51.11
2022-11-11T02:57:50.249Z,42.66
2022-11-11T02:58:50.065Z,42.96
2022-11-11T02:59:50.073Z,45.34
2022-11-11T03:00:50.081Z,45.57
2022-11-11T03:01:50.063Z,45.75
2022-11-11T03:02:50.105Z,44.97
2022-11-11T03:03:50.008Z,53.82
2022-11-11T03:04:49.987Z,43.33
2022-11-11T03:05:50.172Z,50.20
2022-11-11T03:06:50.106Z,45.90
2022-11-11T03:07:50.133Z,49.73
2022-11-11T03:08:50.154Z,58.39
2022-11-11T03:09:50.196Z,59.19
2022-11-11T03:10:49.982Z,57.99
2022-11-11T03:11:50.113Z,58.61
2022-11-11T03:12:49.916Z,58.40
2022-11-11T03:13:50.134Z,58.25
2022-11-11T03:14:50.048Z,58.52
2022-11-11T03:15:49.892Z,58.08
2022-11-11T03:16:50.039Z,58.87
2022-11-11T03:17:50.070Z,58.02
2022-11-11T03:18:50.127Z,58.22
2022-11-11T03:19:49.864Z,60.25
2022-11-11T03:20:49.859Z,63.77
2022-11-11T03:22:55.008Z,60.66
2022-11-11T03:23:50.953Z,60.52
2022-11-11T03:24:49.839Z,61.10
2022-11-11T03:25:52.155Z,60.05
2022-11-11T03:26:49.806Z,61.21
2022-11-11T03:27:49.810Z,59.88
2022-11-11T03:28:49.825Z,59.92
2022-11-11T03:29:49.789Z,60.09
2022-11-11T03:30:49.786Z,59.93
2022-11-11T03:31:49.794Z,61.41
2022-11-11T03:32:49.769Z,59.94
2022-11-11T03:33:49.803Z,59.55
2022-11-11T03:34:49.769Z,59.42
2022-11-11T03:35:49.771Z,59.82
2022-11-11T03:36:49.748Z,59.63
2022-11-11T03:37:49.739Z,60.25
2022-11-11T03:38:49.756Z,59.99
2022-11-11T03:39:49.793Z,60.02
2022-11-11T03:40:49.715Z,60.20
2022-11-11T03:41:49.706Z,59.96
2022-11-11T03:42:49.703Z,59.86
2022-11-11T03:43:49.699Z,60.02
2022-11-11T03:44:49.711Z,60.03
2022-11-11T03:45:49.680Z,61.88
2022-11-11T03:46:49.667Z,59.92
2022-11-11T03:47:50.531Z,59.92
2022-11-11T03:48:49.651Z,60.45
2022-11-11T03:49:49.684Z,62.95
2022-11-11T03:50:49.680Z,60.55
2022-11-11T03:51:49.629Z,61.19
2022-11-11T03:52:49.617Z,60.54
2022-11-11T03:53:49.611Z,60.22
2022-11-11T03:54:49.635Z,60.41
2022-11-11T03:55:49.674Z,60.27
2022-11-11T03:56:49.593Z,60.28
2022-11-11T03:57:49.595Z,60.37
2022-11-11T03:58:49.577Z,60.83
2022-11-11T03:59:49.609Z,60.09
2022-11-11T04:00:49.564Z,60.05
2022-11-11T04:01:49.583Z,60.13
2022-11-11T04:02:49.553Z,58.63
2022-11-11T04:03:49.545Z,57.05
2022-11-11T04:04:49.564Z,56.81
2022-11-11T04:05:49.532Z,59.96
2022-11-11T04:06:49.580Z,57.05
2022-11-11T04:07:49.518Z,57.58
2022-11-11T04:08:49.515Z,56.84
2022-11-11T04:09:49.530Z,57.00
2022-11-11T04:10:49.498Z,57.94
2022-11-11T04:11:49.559Z,57.65
2022-11-11T04:12:49.479Z,63.07
2022-11-11T04:13:49.465Z,56.90
2022-11-11T04:14:49.484Z,57.71
2022-11-11T04:15:49.461Z,57.07
2022-11-11T04:16:49.446Z,61.17
2022-11-11T04:17:49.430Z,56.49
2022-11-11T04:18:49.425Z,57.38
2022-11-11T04:19:49.439Z,61.64
2022-11-11T04:20:49.412Z,58.47
2022-11-11T04:21:49.408Z,57.42
2022-11-11T04:22:49.395Z,57.43
2022-11-11T04:23:49.403Z,57.03
2022-11-11T04:24:49.399Z,57.16
2022-11-11T04:25:49.374Z,56.62
2022-11-11T04:26:49.364Z,57.72
2022-11-11T04:27:49.435Z,57.62
2022-11-11T04:28:49.353Z,58.53
2022-11-11T04:29:49.377Z,58.97
2022-11-11T04:30:49.338Z,56.99
2022-11-11T04:31:49.327Z,57.72
2022-11-11T04:32:49.324Z,58.71
2022-11-11T04:33:49.354Z,60.75
2022-11-11T04:34:49.375Z,58.37
2022-11-11T04:35:49.303Z,58.13
2022-11-11T04:36:49.298Z,57.29
2022-11-11T04:37:49.282Z,57.08
2022-11-11T04:38:49.291Z,57.97
2022-11-11T04:39:49.302Z,58.25
2022-11-11T04:40:49.258Z,57.22
2022-11-11T04:42:14.363Z,62.33
2022-11-11T04:42:51.330Z,57.41
2022-11-11T04:43:49.251Z,58.70
2022-11-11T04:44:49.256Z,63.05
2022-11-11T04:45:49.244Z,58.95
2022-11-11T04:46:49.236Z,57.49
2022-11-11T04:47:49.214Z,59.71
2022-11-11T04:48:49.199Z,58.59
2022-11-11T04:49:49.240Z,59.66
2022-11-11T04:50:49.202Z,60.33
2022-11-11T04:51:49.183Z,62.02
2022-11-11T04:52:49.171Z,57.33
2022-11-11T04:53:49.163Z,56.62
2022-11-11T04:54:49.230Z,57.47
2022-11-11T04:55:49.150Z,57.11
2022-11-11T04:56:49.150Z,58.96
2022-11-11T04:57:49.130Z,58.63
2022-11-11T04:58:49.209Z,58.39
2022-11-11T04:59:49.147Z,56.21
2022-11-11T05:00:49.139Z,56.69
2022-11-11T05:01:49.108Z,58.21
2022-11-11T05:02:49.097Z,58.92
2022-11-11T05:03:49.089Z,58.07
2022-11-11T05:04:49.118Z,58.50
2022-11-11T05:05:49.098Z,58.36
2022-11-11T05:06:49.109Z,58.74
2022-11-11T05:07:49.059Z,60.18
2022-11-11T05:08:49.048Z,58.14
2022-11-11T05:09:49.074Z,59.00
2022-11-11T05:10:49.031Z,57.58
2022-11-11T05:11:49.034Z,58.89
2022-11-11T05:12:49.016Z,59.16
2022-11-11T05:13:49.000Z,57.72
2022-11-11T05:14:49.093Z,58.09
2022-11-11T05:15:48.989Z,59.23
2022-11-11T05:16:49.011Z,59.61
2022-11-11T05:17:48.978Z,60.38
2022-11-11T05:18:48.962Z,58.87
2022-11-11T05:19:48.982Z,58.55
2022-11-11T05:20:48.964Z,59.86
2022-11-11T05:21:48.946Z,61.99
2022-11-11T05:22:48.924Z,59.20
2022-11-11T05:23:49.927Z,58.06
2022-11-11T05:24:48.953Z,58.44
2022-11-11T05:25:48.924Z,60.14
2022-11-11T05:26:48.898Z,58.40
2022-11-11T05:27:48.896Z,59.41
2022-11-11T05:28:48.915Z,63.49
2022-11-11T05:29:48.879Z,58.93
2022-11-11T05:30:48.942Z,58.95
2022-11-11T05:31:51.473Z,62.26
2022-11-11T05:32:49.857Z,59.08
2022-11-11T05:33:48.843Z,60.78
2022-11-11T05:34:48.874Z,59.12
2022-11-11T05:35:48.837Z,60.91
2022-11-11T05:36:48.824Z,59.58
2022-11-11T05:37:48.814Z,59.13
2022-11-11T05:38:48.829Z,58.81
2022-11-11T05:39:48.804Z,60.22
2022-11-11T05:40:48.793Z,58.91
2022-11-11T05:41:48.784Z,59.09
2022-11-11T05:42:54.179Z,58.83
2022-11-11T05:43:50.792Z,59.92
2022-11-11T05:44:48.753Z,59.43
2022-11-11T05:45:48.747Z,58.97
2022-11-11T05:46:48.822Z,59.63
2022-11-11T05:47:48.746Z,60.03
2022-11-11T05:48:48.767Z,59.02
2022-11-11T05:49:48.729Z,59.46
2022-11-11T05:50:48.721Z,58.96
2022-11-11T05:51:48.694Z,59.94
2022-11-11T05:52:49.693Z,59.43
2022-11-11T05:53:48.714Z,59.52
2022-11-11T05:54:48.684Z,58.46
2022-11-11T05:55:48.682Z,59.22
2022-11-11T05:56:48.665Z,58.57
2022-11-11T05:57:48.657Z,59.80
2022-11-11T05:58:50.706Z,61.46
2022-11-11T05:59:49.646Z,59.35
2022-11-11T06:00:48.634Z,58.74
2022-11-11T06:01:48.731Z,58.15
2022-11-11T06:02:48.697Z,58.86
2022-11-11T06:03:48.640Z,59.58
2022-11-11T06:04:48.605Z,59.60
2022-11-11T06:05:48.604Z,59.53
2022-11-11T06:06:48.625Z,59.64
2022-11-11T06:07:48.589Z,59.65
2022-11-11T06:08:48.611Z,58.03
2022-11-11T06:09:48.573Z,59.77
2022-11-11T06:10:48.565Z,59.00
2022-11-11T06:11:48.567Z,60.48
2022-11-11T06:12:48.548Z,60.09
2022-11-11T06:13:48.580Z,58.85
2022-11-11T06:14:48.539Z,60.29
2022-11-11T06:15:48.527Z,60.08
2022-11-11T06:16:48.523Z,59.29
2022-11-11T06:17:48.528Z,58.32
2022-11-11T06:18:48.604Z,59.21
2022-11-11T06:19:48.500Z,58.55
2022-11-11T06:20:48.494Z,61.97
2022-11-11T06:21:48.492Z,59.85
2022-11-11T06:22:48.473Z,58.60
2022-11-11T06:23:48.500Z,59.41
2022-11-11T06:24:48.461Z,59.76
2022-11-11T06:25:48.461Z,59.64
2022-11-11T06:26:48.462Z,59.91
2022-11-11T06:27:48.461Z,61.69
2022-11-11T06:28:48.431Z,59.40
2022-11-11T06:29:48.421Z,60.37
2022-11-11T06:30:50.940Z,59.92
2022-11-11T06:31:49.412Z,59.88
2022-11-11T06:32:48.430Z,60.73
2022-11-11T06:33:48.444Z,59.74
2022-11-11T06:34:48.500Z,63.14
2022-11-11T06:35:48.380Z,60.32
2022-11-11T06:36:48.388Z,57.79
2022-11-11T06:37:48.389Z,59.03
2022-11-11T06:38:48.372Z,57.07
2022-11-11T06:39:48.423Z,55.50
2022-11-11T06:40:48.339Z,57.44
2022-11-11T06:41:48.337Z,58.49
2022-11-11T06:42:48.348Z,56.78
2022-11-11T06:43:48.315Z,57.15
2022-11-11T06:44:48.309Z,56.73
2022-11-11T06:45:48.303Z,55.82
2022-11-11T06:46:48.296Z,58.50
2022-11-11T06:47:48.310Z,57.47
2022-11-11T06:48:48.276Z,57.97
2022-11-11T06:49:48.272Z,56.21
2022-11-11T06:50:48.337Z,56.62
2022-11-11T06:51:48.266Z,55.90
2022-11-11T06:52:48.288Z,55.77
2022-11-11T06:53:48.241Z,58.19
2022-11-11T06:54:48.255Z,56.22
2022-11-11T06:55:48.223Z,58.84
2022-11-11T06:56:48.216Z,58.93
2022-11-11T06:57:48.234Z,55.84
2022-11-11T06:58:48.199Z,55.00
2022-11-11T06:59:48.204Z,57.62
2022-11-11T07:00:48.305Z,57.97
2022-11-11T07:01:48.262Z,55.32
2022-11-11T07:02:48.189Z,54.19
2022-11-11T07:03:48.161Z,56.43
2022-11-11T07:04:48.145Z,57.28
2022-11-11T07:05:49.157Z,57.02
2022-11-11T07:06:48.222Z,56.41
2022-11-11T07:07:48.156Z,57.31
2022-11-11T07:08:48.126Z,57.02
2022-11-11T07:09:48.114Z,56.62
2022-11-11T07:10:48.103Z,54.83
2022-11-11T07:11:48.094Z,58.54
2022-11-11T07:12:48.113Z,53.48
2022-11-11T07:13:48.080Z,56.29
2022-11-11T07:14:48.077Z,61.39
2022-11-11T07:15:48.072Z,55.32
2022-11-11T07:16:48.060Z,56.92
2022-11-11T07:17:48.080Z,55.30
2022-11-11T07:18:48.044Z,59.66
2022-11-11T07:19:48.082Z,54.33
2022-11-11T07:20:48.024Z,57.52
2022-11-11T07:21:48.026Z,54.70
2022-11-11T07:22:48.115Z,58.29
2022-11-11T07:23:48.010Z,56.70
2022-11-11T07:24:48.001Z,54.48
2022-11-11T07:25:47.998Z,56.13
2022-11-11T07:26:47.991Z,58.81
2022-11-11T07:27:48.013Z,55.65
2022-11-11T07:28:47.968Z,53.10
2022-11-11T07:29:47.986Z,53.30
2022-11-11T07:30:47.959Z,56.66
2022-11-11T07:31:47.974Z,55.04
2022-11-11T07:32:47.968Z,57.14
2022-11-11T07:33:47.932Z,50.64
2022-11-11T07:34:47.920Z,54.59
2022-11-11T07:35:47.916Z,55.30
2022-11-11T07:36:47.919Z,55.88
2022-11-11T07:37:47.921Z,53.04
2022-11-11T07:38:47.968Z,57.56
2022-11-11T07:39:47.896Z,54.84
2022-11-11T07:40:47.876Z,54.82
2022-11-11T07:41:47.872Z,54.71
2022-11-11T07:42:47.901Z,59.51
2022-11-11T07:43:47.859Z,54.94
2022-11-11T07:44:49.481Z,54.21
2022-11-11T07:45:48.841Z,57.79
2022-11-11T07:46:47.860Z,54.67
2022-11-11T07:47:47.846Z,56.74
2022-11-11T07:48:47.817Z,54.93
2022-11-11T07:49:47.813Z,57.02
2022-11-11T07:50:47.795Z,55.82
2022-11-11T07:51:47.790Z,56.60
2022-11-11T07:52:47.811Z,57.20
2022-11-11T07:53:47.780Z,54.90
2022-11-11T07:54:47.839Z,54.13
2022-11-11T07:55:48.762Z,58.79
2022-11-11T07:56:47.753Z,55.18
2022-11-11T07:57:47.786Z,55.18
2022-11-11T07:58:47.739Z,53.43
2022-11-11T07:59:47.730Z,59.35
2022-11-11T08:00:47.816Z,55.41
2022-11-11T08:01:47.714Z,55.03
2022-11-11T08:02:47.742Z,52.79
2022-11-11T08:03:47.707Z,59.33
2022-11-11T08:04:52.361Z,54.31
2022-11-11T08:05:49.683Z,55.21
2022-11-11T08:06:47.703Z,55.26
2022-11-11T08:07:47.675Z,54.98
2022-11-11T08:08:47.682Z,56.91
2022-11-11T08:09:47.660Z,57.29
2022-11-11T08:10:47.721Z,54.83
2022-11-11T08:11:47.641Z,54.86
2022-11-11T08:12:47.638Z,58.56
2022-11-11T08:13:47.645Z,56.20
2022-11-11T08:14:47.617Z,57.44
2022-11-11T08:15:47.605Z,57.15
2022-11-11T08:16:47.606Z,55.43
2022-11-11T08:17:47.593Z,55.17
2022-11-11T08:18:47.607Z,56.14
2022-11-11T08:19:48.588Z,57.98
2022-11-11T08:20:53.584Z,54.50
2022-11-11T08:21:49.625Z,53.25
2022-11-11T08:23:14.810Z,51.61
2022-11-11T08:24:56.568Z,56.69
2022-11-11T08:25:02.861Z,55.03
2022-11-11T08:25:49.610Z,56.23
2022-11-11T08:26:47.527Z,56.94
2022-11-11T08:27:47.518Z,58.66
2022-11-11T08:28:47.533Z,54.06
2022-11-11T08:29:47.502Z,56.63
2022-11-11T08:30:47.501Z,57.81
2022-11-11T08:31:47.487Z,54.52
2022-11-11T08:33:00.509Z,55.34
2022-11-11T08:33:48.633Z,54.80
2022-11-11T08:34:47.479Z,56.42
2022-11-11T08:35:47.449Z,59.20
2022-11-11T08:36:47.446Z,57.34
2022-11-11T08:37:47.442Z,54.51
2022-11-11T08:38:47.458Z,55.37
2022-11-11T08:39:47.421Z,51.89
2022-11-11T08:40:47.406Z,56.97
2022-11-11T08:41:47.471Z,64.07
2022-11-11T08:42:47.396Z,56.61
2022-11-11T08:43:47.417Z,54.02
2022-11-11T08:44:47.385Z,58.34
2022-11-11T08:45:47.359Z,58.93
2022-11-11T08:46:48.388Z,58.24
2022-11-11T08:47:47.367Z,58.25
2022-11-11T08:48:47.371Z,48.59
2022-11-11T08:49:47.340Z,57.84
2022-11-11T08:50:47.343Z,54.67
2022-11-11T08:51:47.316Z,57.20
2022-11-11T08:52:48.318Z,56.82
2022-11-11T08:53:47.346Z,57.76
2022-11-11T08:54:48.311Z,59.61
2022-11-11T08:55:47.319Z,55.38
2022-11-11T08:56:47.291Z,54.34
2022-11-11T08:57:47.360Z,55.93
2022-11-11T08:58:47.317Z,57.43
2022-11-11T08:59:47.259Z,57.94
2022-11-11T09:00:47.313Z,57.27
2022-11-11T09:01:47.252Z,53.59
2022-11-11T09:02:47.241Z,55.43
2022-11-11T09:03:47.286Z,53.92
2022-11-11T09:04:51.534Z,53.10
2022-11-11T09:05:49.215Z,56.05
2022-11-11T09:06:47.261Z,55.97
2022-11-11T09:07:47.212Z,59.12
2022-11-11T09:08:47.219Z,55.67
2022-11-11T09:09:47.194Z,55.34
2022-11-11T09:10:47.191Z,57.33
2022-11-11T09:11:47.173Z,56.07
2022-11-11T09:12:47.163Z,55.93
2022-11-11T09:13:47.262Z,55.90
2022-11-11T09:14:47.153Z,55.87
2022-11-11T09:15:47.152Z,56.81
2022-11-11T09:16:47.130Z,55.19
2022-11-11T09:17:47.140Z,56.20
2022-11-11T09:18:47.187Z,58.90
2022-11-11T09:19:47.108Z,56.96
2022-11-11T09:20:47.102Z,59.18
2022-11-11T09:21:47.096Z,59.91
2022-11-11T09:22:47.103Z,56.98
2022-11-11T09:23:47.105Z,58.15
2022-11-11T09:24:47.091Z,56.44
2022-11-11T09:25:47.073Z,57.48
2022-11-11T09:26:47.059Z,60.21
2022-11-11T09:27:47.093Z,58.13
2022-11-11T09:28:47.075Z,56.86
2022-11-11T09:29:47.111Z,59.32
2022-11-11T09:30:47.031Z,57.61
2022-11-11T09:31:47.189Z,54.27
2022-11-11T09:32:47.020Z,56.22
2022-11-11T09:33:47.036Z,55.63
2022-11-11T09:34:47.033Z,57.22
2022-11-11T09:35:46.992Z,54.51
2022-11-11T09:36:46.991Z,56.93
2022-11-11T09:37:46.973Z,58.31
2022-11-11T09:38:47.001Z,53.34
2022-11-11T09:39:46.958Z,58.59
2022-11-11T09:40:46.950Z,55.87
2022-11-11T09:41:50.632Z,54.95
2022-11-11T09:42:47.932Z,58.38
2022-11-11T09:43:46.924Z,53.05
2022-11-11T09:44:48.411Z,55.21
2022-11-11T09:45:47.048Z,52.10
2022-11-11T09:46:46.915Z,56.34
2022-11-11T09:47:46.896Z,54.36
2022-11-11T09:48:46.892Z,55.16
2022-11-11T09:49:46.911Z,56.95
2022-11-11T09:50:46.878Z,57.69
2022-11-11T09:51:46.884Z,57.18
2022-11-11T09:52:46.862Z,57.60
2022-11-11T09:53:46.857Z,53.44
2022-11-11T09:54:46.879Z,54.11
2022-11-11T09:55:46.845Z,57.71
2022-11-11T09:56:46.831Z,56.35
2022-11-11T09:57:46.819Z,54.31
2022-11-11T09:58:46.811Z,57.04
2022-11-11T09:59:46.837Z,58.41
2022-11-11T10:00:46.852Z,56.15
2022-11-11T10:01:46.870Z,54.02
2022-11-11T10:02:46.795Z,59.06
2022-11-11T10:03:46.785Z,56.20
2022-11-11T10:04:46.795Z,54.28
2022-11-11T10:05:46.769Z,54.52
2022-11-11T10:06:46.788Z,55.60
2022-11-11T10:07:46.744Z,53.53
2022-11-11T10:08:46.732Z,55.37
2022-11-11T10:09:46.749Z,56.70
2022-11-11T10:10:46.721Z,56.58
2022-11-11T10:11:46.711Z,59.68
2022-11-11T10:12:46.703Z,54.52
2022-11-11T10:13:46.713Z,53.31
2022-11-11T10:14:46.717Z,49.46
2022-11-11T10:15:46.678Z,60.80
2022-11-11T10:16:46.670Z,56.46
2022-11-11T10:17:47.228Z,56.13
2022-11-11T10:18:46.660Z,55.68
2022-11-11T10:19:46.678Z,56.91
2022-11-11T10:20:46.653Z,58.31
2022-11-11T10:22:11.059Z,57.43
2022-11-11T10:22:48.619Z,57.86
2022-11-11T10:23:46.613Z,53.37
2022-11-11T10:24:50.774Z,53.53
2022-11-11T10:25:47.607Z,55.19
2022-11-11T10:26:46.585Z,60.31
2022-11-11T10:27:46.585Z,49.58
2022-11-11T10:28:46.574Z,56.32
2022-11-11T10:29:46.599Z,56.08
2022-11-11T10:30:47.574Z,55.67
2022-11-11T10:31:46.547Z,56.80
2022-11-11T10:32:46.551Z,53.86
2022-11-11T10:33:46.619Z,56.77
2022-11-11T10:34:46.561Z,61.34
2022-11-11T10:35:46.523Z,51.85
2022-11-11T10:36:46.514Z,56.68
2022-11-11T10:37:46.508Z,56.66
2022-11-11T10:38:46.508Z,54.05
2022-11-11T10:39:46.488Z,58.04
2022-11-11T10:40:46.504Z,55.45
2022-11-11T10:41:46.469Z,60.14
2022-11-11T10:42:46.469Z,52.48
2022-11-11T10:43:46.461Z,48.94
2022-11-11T10:44:46.455Z,53.99
2022-11-11T10:45:46.549Z,61.15
2022-11-11T10:46:46.439Z,53.75
2022-11-11T10:47:46.611Z,55.55
2022-11-11T10:48:47.158Z,55.46
2022-11-11T10:49:46.496Z,56.54
2022-11-11T10:50:46.438Z,54.38
2022-11-11T10:51:46.400Z,56.37
2022-11-11T10:52:46.400Z,56.29
2022-11-11T10:53:46.388Z,57.88
2022-11-11T10:54:46.369Z,57.67
2022-11-11T10:55:47.430Z,57.88
2022-11-11T10:56:46.364Z,55.72
2022-11-11T10:57:46.369Z,58.25
2022-11-11T10:58:46.351Z,55.99
2022-11-11T10:59:46.345Z,57.25
2022-11-11T11:00:46.434Z,51.37
2022-11-11T11:01:46.391Z,57.81
2022-11-11T11:02:46.322Z,53.96
2022-11-11T11:03:46.308Z,54.25
2022-11-11T11:04:46.309Z,54.44
2022-11-11T11:05:46.396Z,50.51
2022-11-11T11:06:46.313Z,56.52
2022-11-11T11:07:46.958Z,60.23
2022-11-11T11:08:46.276Z,55.99
2022-11-11T11:09:46.276Z,54.16
2022-11-11T11:10:46.285Z,58.47
2022-11-11T11:11:46.245Z,57.18
2022-11-11T11:12:46.498Z,55.09
2022-11-11T11:13:46.244Z,54.22
2022-11-11T11:14:46.229Z,54.33
2022-11-11T11:15:46.247Z,56.20
2022-11-11T11:16:46.226Z,57.78
2022-11-11T11:17:46.204Z,55.50
2022-11-11T11:18:46.196Z,54.82
2022-11-11T11:19:46.186Z,56.84
2022-11-11T11:20:46.212Z,57.23
2022-11-11T11:21:46.260Z,57.08
2022-11-11T11:22:46.179Z,58.06
2022-11-11T11:23:46.170Z,57.39
2022-11-11T11:24:46.148Z,55.05
2022-11-11T11:25:46.179Z,54.51
2022-11-11T11:26:46.138Z,60.60
2022-11-11T11:27:46.133Z,52.40
2022-11-11T11:28:46.124Z,56.59
2022-11-11T11:29:46.119Z,58.12
2022-11-11T11:30:46.149Z,56.41
2022-11-11T11:31:46.100Z,53.80
2022-11-11T11:32:46.088Z,57.23
2022-11-11T11:33:46.091Z,54.96
2022-11-11T11:34:46.635Z,54.14
2022-11-11T11:35:46.090Z,53.80
2022-11-11T11:36:46.064Z,52.88
2022-11-11T11:37:46.137Z,56.03
2022-11-11T11:38:46.047Z,56.25
2022-11-11T11:39:46.038Z,58.44
2022-11-11T11:40:46.062Z,58.60
2022-11-11T11:41:46.061Z,55.68
2022-11-11T11:42:46.027Z,54.47
2022-11-11T11:43:46.043Z,52.70
2022-11-11T11:44:46.005Z,57.09
2022-11-11T11:45:46.014Z,56.04
2022-11-11T11:46:47.002Z,56.86
2022-11-11T11:47:58.421Z,57.46
2022-11-11T11:48:48.344Z,54.48
2022-11-11T11:49:45.956Z,54.48
2022-11-11T11:50:45.959Z,58.92
2022-11-11T11:51:45.969Z,55.86
2022-11-11T11:52:45.940Z,61.82
2022-11-11T11:53:46.007Z,57.89
2022-11-11T11:54:45.910Z,57.20
2022-11-11T11:55:45.922Z,57.33
2022-11-11T11:56:45.933Z,56.54
2022-11-11T11:57:45.899Z,51.50
2022-11-11T11:58:45.894Z,52.73
2022-11-11T11:59:45.888Z,57.43
2022-11-11T12:00:45.874Z,57.50
2022-11-11T12:01:45.918Z,57.08
2022-11-11T12:02:45.929Z,56.24
2022-11-11T12:03:45.845Z,59.65
2022-11-11T12:04:45.845Z,57.03
2022-11-11T12:05:45.864Z,57.32
2022-11-11T12:06:45.909Z,58.30
2022-11-11T12:07:45.816Z,60.82
2022-11-11T12:08:45.801Z,57.87
2022-11-11T12:09:45.879Z,55.53
2022-11-11T12:10:45.838Z,57.00
2022-11-11T12:11:45.782Z,55.51
2022-11-11T12:12:45.770Z,56.12
2022-11-11T12:13:45.769Z,59.49
2022-11-11T12:14:45.771Z,56.11
2022-11-11T12:15:45.781Z,58.12
2022-11-11T12:16:45.753Z,56.78
2022-11-11T12:17:45.733Z,57.29
2022-11-11T12:18:45.744Z,58.30
2022-11-11T12:19:45.748Z,57.50
2022-11-11T12:20:45.753Z,57.87
2022-11-11T12:21:45.723Z,56.19
2022-11-11T12:22:45.780Z,55.06
2022-11-11T12:23:46.700Z,55.15
2022-11-11T12:24:45.675Z,54.37
2022-11-11T12:25:45.770Z,52.97
2022-11-11T12:26:45.668Z,50.96
2022-11-11T12:27:45.657Z,52.52
2022-11-11T12:28:45.653Z,52.55
2022-11-11T12:29:45.647Z,52.39
2022-11-11T12:30:45.666Z,55.00
2022-11-11T12:31:45.630Z,56.34
2022-11-11T12:32:48.766Z,57.38
2022-11-11T12:33:46.616Z,57.09
2022-11-11T12:34:45.615Z,55.38
2022-11-11T12:35:45.624Z,55.40
2022-11-11T12:36:45.593Z,54.01
2022-11-11T12:37:45.599Z,56.11
2022-11-11T12:38:45.586Z,58.07
2022-11-11T12:39:45.605Z,57.90
2022-11-11T12:40:45.556Z,57.41
2022-11-11T12:41:45.626Z,58.50
2022-11-11T12:42:45.550Z,56.83
2022-11-11T12:43:45.554Z,54.87
2022-11-11T12:44:46.804Z,57.83
2022-11-11T12:45:46.548Z,59.34
2022-11-11T12:46:45.522Z,59.37
2022-11-11T12:47:45.512Z,57.20
2022-11-11T12:48:45.511Z,57.19
2022-11-11T12:49:45.489Z,57.90
2022-11-11T12:50:45.494Z,60.91
2022-11-11T12:51:45.471Z,56.52
2022-11-11T12:52:45.465Z,56.53
2022-11-11T12:53:45.470Z,56.80